Hlavní strana
METAR-TAF:

METAR-TAF

Letiště :

Esbjerg, Dánsko

zeměpisná šířka: 55-32N, zeměpisná délka: 008-34E, výška: 30 m

Aktuální stav počasí

Zpráva byla vytvořena před 15 minutami, v 15:50 UTC
Severozápadní vítr 10 kt
Teplota 7°C
Vlhkost vzduchu 87%
Tlak 1035 hPa
Viditelnost 10 km a více

METAR: EKEB 281550Z AUTO 31010KT 9999 SCT014/// 07/05 Q1035

Čas: 17:05 (16:05 UTC)

Předpověď počasí

Zpráva byla vytvořena před 1 hodinou a 43 minutami, v 14:22 UTC
Předpověď platná od 28 v 15 UTC do 28 v 23 UTC
Západoseverozápadní vítr 10 kt
Viditelnost 10 km a více
Polojasno ve výšce 600 ft
Dočasný
od 28 v 15 UTC do 28 v 18 UTC
Oblačno až skoro zataženo ve výšce 800 ft
Změna
od 28 v 18 UTC do 28 v 20 UTC
Viditelnost: 0300 m
ve výšce 100 ft
mlha
Dočasný
od 28 v 20 UTC do 28 v 23 UTC
Viditelnost: 3000 m
Polojasno ve výšce 400 ft
kouřmo

TAF: EKEB 281422Z 2815/2823 30010KT 9999 SCT006 TEMPO 2815/2818 BKN008 BECMG 2818/2820 0300 FG VV001 TEMPO 2820/2823 3000 BR SCT004

Stav a předpovědi počasí z více než 4 000 letišť (zprávy METAR a TAF).

Červené a žluté tečky na mapě představují dostupné meteorologické stanice.

Když kurzor umístíte na tečku, zobrazí se název stanice.

Pak kliknutím zobrazíte stav a předpověď počasí.

Chcete-li změnit mapu, kliknutím na zelené tlačítko se znaménkem +mapu přiblížíte, kliknutím na zelené tlačítko se znaménkem – mapu oddálíte a kliknutím na zelené šipky přejdete na sousední mapy.


METAR-TAF: